createdAt,value
2022-08-11T00:01:55.967Z,76.50
2022-08-11T00:04:25.697Z,76.30
2022-08-11T00:06:55.356Z,76.40
2022-08-11T00:09:31.768Z,76.50
2022-08-11T00:12:14.838Z,76.40
2022-08-11T00:14:42.882Z,76.10
2022-08-11T00:17:12.562Z,76.40
2022-08-11T00:20:12.931Z,76.10
2022-08-11T00:22:31.010Z,75.80
2022-08-11T00:25:02.076Z,76.40
2022-08-11T00:27:38.181Z,76.20
2022-08-11T00:30:07.036Z,76.40
2022-08-11T00:32:35.396Z,76.60
2022-08-11T00:35:52.055Z,76.50
2022-08-11T00:37:54.673Z,77.10
2022-08-11T00:40:51.320Z,76.90
2022-08-11T00:43:36.508Z,77.70
2022-08-11T00:46:11.111Z,77.50
2022-08-11T00:49:13.407Z,78.40
2022-08-11T00:52:13.419Z,77.80
2022-08-11T00:54:49.394Z,78.10
2022-08-11T00:57:41.123Z,78.50
2022-08-11T01:00:16.578Z,78.00
2022-08-11T01:02:52.506Z,78.60
2022-08-11T01:05:31.372Z,78.70
2022-08-11T01:08:23.107Z,78.60
2022-08-11T01:11:15.251Z,78.80
2022-08-11T01:14:18.301Z,78.80
2022-08-11T01:17:27.351Z,79.90
2022-08-11T01:20:46.745Z,78.80
2022-08-11T01:23:53.056Z,78.80
2022-08-11T01:26:38.869Z,79.00
2022-08-11T01:29:36.810Z,79.20
2022-08-11T01:32:23.820Z,79.30
2022-08-11T01:35:31.137Z,79.80
2022-08-11T01:38:24.052Z,79.60
2022-08-11T01:41:22.129Z,79.90
2022-08-11T01:44:22.579Z,80.00
2022-08-11T01:47:09.211Z,79.90
2022-08-11T01:50:07.165Z,79.70
2022-08-11T01:53:18.682Z,80.00
2022-08-11T01:56:05.228Z,80.30
2022-08-11T01:58:58.415Z,80.20
2022-08-11T02:02:05.988Z,80.60
2022-08-11T02:05:29.893Z,80.50
2022-08-11T02:08:33.362Z,80.60
2022-08-11T02:11:31.594Z,80.90
2022-08-11T02:14:21.080Z,81.00
2022-08-11T02:17:19.660Z,81.10
2022-08-11T02:20:22.325Z,80.80
2022-08-11T02:24:04.555Z,80.90
2022-08-11T02:26:32.119Z,80.90
2022-08-11T02:29:13.416Z,81.50
2022-08-11T02:32:28.543Z,81.80
2022-08-11T02:35:10.718Z,81.90
2022-08-11T02:38:13.245Z,82.00
2022-08-11T02:40:46.129Z,81.80
2022-08-11T02:44:00.691Z,81.50
2022-08-11T02:46:48.453Z,81.50
2022-08-11T02:50:02.620Z,81.60
2022-08-11T02:52:59.761Z,81.80
2022-08-11T02:55:58.251Z,82.00
2022-08-11T02:58:39.902Z,81.70
2022-08-11T03:01:11.784Z,81.80
2022-08-11T03:04:11.208Z,81.80
2022-08-11T03:06:47.864Z,81.70
2022-08-11T03:09:30.041Z,81.80
2022-08-11T03:12:31.416Z,81.90
2022-08-11T03:15:30.034Z,82.00
2022-08-11T03:18:29.550Z,81.90
2022-08-11T03:21:11.451Z,82.00
2022-08-11T03:23:53.229Z,82.40
2022-08-11T03:26:43.440Z,82.30
2022-08-11T03:29:41.137Z,82.30
2022-08-11T03:33:17.178Z,82.40
2022-08-11T03:36:09.711Z,82.30
2022-08-11T03:39:00.067Z,82.60
2022-08-11T03:42:02.563Z,83.40
2022-08-11T03:44:43.767Z,82.50
2022-08-11T03:50:25.173Z,82.30
2022-08-11T03:53:00.276Z,82.90
2022-08-11T03:55:49.971Z,83.00
2022-08-11T03:58:57.911Z,83.00
2022-08-11T04:01:55.317Z,83.20
2022-08-11T04:04:59.019Z,83.30
2022-08-11T04:07:47.333Z,83.40
2022-08-11T04:10:41.576Z,83.20
2022-08-11T04:13:54.483Z,83.30
2022-08-11T04:16:44.609Z,83.40
2022-08-11T04:19:30.149Z,83.50
2022-08-11T04:22:05.947Z,83.60
2022-08-11T04:24:57.554Z,83.80
2022-08-11T04:27:53.515Z,84.10
2022-08-11T04:30:28.689Z,84.30
2022-08-11T04:32:59.783Z,84.10
2022-08-11T04:35:48.825Z,84.10
2022-08-11T04:38:46.541Z,84.10
2022-08-11T04:41:59.543Z,84.10
2022-08-11T04:45:06.614Z,84.30
2022-08-11T04:48:19.547Z,84.30
2022-08-11T04:51:26.589Z,84.40
2022-08-11T04:54:59.224Z,85.00
2022-08-11T04:58:12.344Z,84.50
2022-08-11T05:01:37.583Z,84.40
2022-08-11T05:04:41.962Z,84.70
2022-08-11T05:07:43.637Z,84.90
2022-08-11T05:10:51.755Z,85.10
2022-08-11T05:14:10.233Z,85.60
2022-08-11T05:17:06.863Z,85.70
2022-08-11T05:19:52.470Z,85.80
2022-08-11T05:22:40.149Z,85.80
2022-08-11T05:26:43.828Z,86.30
2022-08-11T05:28:48.841Z,86.50
2022-08-11T05:31:36.870Z,86.60
2022-08-11T05:34:30.994Z,86.40
2022-08-11T05:37:26.088Z,86.20
2022-08-11T05:40:19.673Z,86.20
2022-08-11T05:43:11.505Z,85.80
2022-08-11T05:46:04.638Z,85.60
2022-08-11T05:48:53.773Z,86.00
2022-08-11T05:51:49.933Z,85.70
2022-08-11T05:54:46.031Z,85.30
2022-08-11T05:57:49.673Z,84.90
2022-08-11T06:00:10.521Z,85.30
2022-08-11T06:02:46.562Z,84.20
2022-08-11T06:05:14.334Z,83.80
2022-08-11T06:07:48.964Z,83.40
2022-08-11T06:12:55.850Z,82.30
2022-08-11T06:15:23.227Z,83.90
2022-08-11T06:17:51.410Z,83.10
2022-08-11T06:20:19.620Z,82.40
2022-08-11T06:22:55.208Z,82.60
2022-08-11T06:25:22.632Z,83.00
2022-08-11T06:27:56.479Z,82.40
2022-08-11T06:30:42.584Z,86.20
2022-08-11T06:33:18.970Z,82.50
2022-08-11T06:36:09.265Z,81.60
2022-08-11T06:39:08.804Z,81.40
2022-08-11T06:41:44.560Z,81.70
2022-08-11T06:44:14.526Z,80.40
2022-08-11T06:46:42.720Z,81.10
2022-08-11T06:49:34.676Z,79.10
2022-08-11T06:52:07.223Z,79.70
2022-08-11T06:54:57.277Z,79.10
2022-08-11T06:57:43.046Z,79.20
2022-08-11T07:00:28.839Z,78.10
2022-08-11T07:03:10.526Z,78.20
2022-08-11T07:05:47.489Z,76.80
2022-08-11T07:08:51.774Z,76.90
2022-08-11T07:12:08.445Z,76.90
2022-08-11T07:15:00.551Z,76.80
2022-08-11T07:17:30.649Z,76.70
2022-08-11T07:20:20.010Z,76.50
2022-08-11T07:23:13.701Z,76.80
2022-08-11T07:26:02.295Z,76.30
2022-08-11T07:28:50.574Z,76.00
2022-08-11T07:34:07.442Z,70.80
2022-08-11T07:36:42.933Z,70.00
2022-08-11T07:39:19.063Z,69.10
2022-08-11T07:41:47.351Z,68.50
2022-08-11T07:44:17.143Z,68.10
2022-08-11T07:47:05.794Z,67.00
2022-08-11T07:49:55.657Z,66.20
2022-08-11T07:52:30.535Z,66.00
2022-08-11T07:55:00.864Z,66.00
2022-08-11T07:58:15.370Z,65.80
2022-08-11T08:01:03.389Z,66.50
2022-08-11T08:03:57.618Z,65.40
2022-08-11T08:09:30.564Z,64.20
2022-08-11T08:12:19.469Z,63.90
2022-08-11T08:15:05.171Z,62.30
2022-08-11T08:18:09.886Z,61.40
2022-08-11T08:20:50.656Z,62.30
2022-08-11T08:23:33.525Z,60.50
2022-08-11T08:26:26.459Z,61.90
2022-08-11T08:31:21.352Z,59.10
2022-08-11T08:33:48.529Z,60.50
2022-08-11T08:36:17.019Z,61.60
2022-08-11T08:38:50.681Z,61.80
2022-08-11T08:41:29.118Z,61.10
2022-08-11T08:44:34.672Z,60.10
2022-08-11T08:46:55.421Z,59.30
2022-08-11T08:49:40.417Z,58.30
2022-08-11T08:52:26.296Z,59.60
2022-08-11T08:55:04.478Z,59.00
2022-08-11T09:00:09.626Z,59.00
2022-08-11T09:02:41.372Z,58.60
2022-08-11T09:05:10.059Z,59.10
2022-08-11T09:07:40.628Z,58.70
2022-08-11T09:10:10.496Z,59.10
2022-08-11T09:12:40.012Z,58.50
2022-08-11T09:15:10.301Z,58.30
2022-08-11T09:17:46.402Z,58.00
2022-08-11T09:20:24.028Z,57.60
2022-08-11T09:26:20.805Z,56.50
2022-08-11T09:28:50.176Z,56.60
2022-08-11T09:31:17.510Z,55.90
2022-08-11T09:33:45.956Z,55.60
2022-08-11T09:36:32.362Z,55.90
2022-08-11T09:39:19.188Z,56.90
2022-08-11T09:42:01.424Z,56.30
2022-08-11T09:44:50.394Z,55.40
2022-08-11T09:47:26.629Z,71.10
2022-08-11T09:50:00.218Z,57.10
2022-08-11T09:52:29.510Z,64.80
2022-08-11T09:54:56.713Z,67.40
2022-08-11T09:57:44.005Z,80.70
2022-08-11T10:00:14.099Z,83.10
2022-08-11T11:51:01.122Z,94.60
2022-08-11T11:53:28.037Z,71.00
2022-08-11T11:55:55.836Z,66.90
2022-08-11T11:58:41.957Z,68.30
2022-08-11T12:01:19.905Z,66.70
2022-08-11T12:03:49.910Z,66.60
2022-08-11T12:06:19.934Z,65.40
2022-08-11T12:11:37.806Z,70.30
2022-08-11T12:14:10.693Z,74.60
2022-08-11T12:16:40.942Z,75.40
2022-08-11T12:19:35.798Z,74.80
2022-08-11T12:22:21.660Z,76.00
2022-08-11T12:25:07.422Z,70.70
2022-08-11T12:27:36.481Z,69.20
2022-08-11T12:30:08.588Z,69.40
2022-08-11T12:32:39.184Z,70.20
2022-08-11T12:35:07.225Z,71.50
2022-08-11T12:37:43.783Z,71.20
2022-08-11T12:40:43.830Z,72.60
2022-08-11T12:46:25.626Z,70.30
2022-08-11T12:49:17.053Z,72.60
2022-08-11T12:52:13.091Z,74.30
2022-08-11T14:25:59.981Z,93.70
2022-08-11T14:28:33.046Z,52.90
2022-08-11T14:31:05.455Z,52.60
2022-08-11T14:34:01.001Z,52.00
2022-08-11T14:36:23.873Z,52.50
2022-08-11T14:38:51.515Z,52.70
2022-08-11T14:41:37.541Z,52.60
2022-08-11T14:44:44.636Z,53.10
2022-08-11T14:47:24.008Z,53.20
2022-08-11T14:49:58.075Z,51.00
2022-08-11T14:52:38.471Z,51.60
2022-08-11T14:55:26.016Z,51.00
2022-08-11T14:58:04.836Z,51.00
2022-08-11T15:00:34.512Z,51.20
2022-08-11T15:03:13.988Z,51.60
2022-08-11T15:06:02.308Z,51.80
2022-08-11T15:08:51.334Z,51.40
2022-08-11T15:11:38.769Z,51.40
2022-08-11T15:14:08.464Z,51.70
2022-08-11T15:16:56.894Z,51.00
2022-08-11T15:19:25.162Z,51.20
2022-08-11T15:22:10.789Z,50.60
2022-08-11T15:24:37.871Z,51.30
2022-08-11T15:27:33.786Z,50.30
2022-08-11T15:30:33.081Z,50.80
2022-08-11T15:33:25.649Z,50.80
2022-08-11T15:36:13.233Z,50.60
2022-08-11T15:38:55.206Z,50.80
2022-08-11T15:41:54.539Z,51.30
2022-08-11T15:45:02.061Z,50.70
2022-08-11T15:47:41.402Z,51.30
2022-08-11T15:50:14.925Z,50.90
2022-08-11T15:52:51.069Z,51.10
2022-08-11T15:55:19.566Z,51.60
2022-08-11T15:58:08.291Z,51.60
2022-08-11T16:00:59.074Z,51.50
2022-08-11T16:04:07.146Z,52.30
2022-08-11T16:06:37.814Z,51.80
2022-08-11T16:09:08.947Z,51.20
2022-08-11T16:11:47.064Z,51.10
2022-08-11T16:14:34.507Z,51.80
2022-08-11T16:17:03.582Z,51.00
2022-08-11T16:19:35.729Z,51.00
2022-08-11T16:22:10.096Z,51.00
2022-08-11T16:27:04.680Z,50.90
2022-08-11T16:27:34.132Z,51.40
2022-08-11T16:30:01.755Z,51.50
2022-08-11T16:32:31.245Z,50.70
2022-08-11T16:35:37.826Z,51.50
2022-08-11T16:38:25.181Z,51.00
2022-08-11T16:40:53.562Z,50.80
2022-08-11T16:43:42.382Z,50.80
2022-08-11T16:46:31.013Z,51.40
2022-08-11T16:49:00.237Z,51.00
2022-08-11T16:51:27.107Z,50.80
2022-08-11T16:54:04.854Z,50.60
2022-08-11T16:56:41.746Z,50.60
2022-08-11T16:59:17.614Z,51.10
2022-08-11T17:01:59.285Z,51.00
2022-08-11T17:05:02.895Z,51.40
2022-08-11T17:07:48.858Z,51.90
2022-08-11T17:10:55.641Z,51.60
2022-08-11T17:13:40.224Z,51.50
2022-08-11T17:16:12.969Z,51.80
2022-08-11T17:18:50.146Z,52.30
2022-08-11T17:21:30.045Z,52.00
2022-08-11T17:24:06.412Z,52.90
2022-08-11T17:26:59.275Z,52.60
2022-08-11T17:29:32.113Z,52.10
2022-08-11T17:32:21.069Z,52.90
2022-08-11T17:35:08.933Z,51.90
2022-08-11T17:37:37.727Z,52.20
2022-08-11T17:40:09.857Z,52.30
2022-08-11T17:42:56.258Z,52.20
2022-08-11T17:45:43.029Z,51.90
2022-08-11T17:48:26.224Z,52.90
2022-08-11T17:51:35.105Z,52.30
2022-08-11T17:54:25.046Z,51.50
2022-08-11T17:57:21.351Z,51.60
2022-08-11T17:59:55.300Z,52.20
2022-08-11T18:02:47.045Z,52.20
2022-08-11T18:05:15.292Z,52.80
2022-08-11T18:08:03.061Z,52.90
2022-08-11T18:10:50.007Z,52.60
2022-08-11T18:13:38.895Z,53.10
2022-08-11T18:16:25.272Z,53.30
2022-08-11T18:19:11.015Z,53.60
2022-08-11T18:22:08.234Z,53.60
2022-08-11T18:25:07.514Z,53.90
2022-08-11T18:27:54.901Z,54.40
2022-08-11T18:30:41.839Z,54.10
2022-08-11T18:36:41.433Z,54.80
2022-08-11T18:39:31.086Z,54.50
2022-08-11T18:42:29.211Z,55.10
2022-08-11T18:45:21.739Z,54.50
2022-08-11T18:48:11.661Z,55.10
2022-08-11T18:51:31.359Z,55.40
2022-08-11T18:54:13.634Z,55.50
2022-08-11T18:57:01.407Z,55.20
2022-08-11T18:59:49.798Z,55.60
2022-08-11T19:02:49.427Z,56.40
2022-08-11T19:06:06.089Z,57.00
2022-08-11T19:08:46.574Z,57.60
2022-08-11T19:11:33.078Z,58.20
2022-08-11T19:14:21.708Z,58.60
2022-08-11T19:17:09.803Z,59.20
2022-08-11T19:19:57.977Z,59.10
2022-08-11T19:22:45.613Z,59.00
2022-08-11T19:25:31.610Z,59.70
2022-08-11T19:28:16.998Z,67.50
2022-08-11T19:31:02.758Z,81.60
2022-08-11T19:33:59.838Z,60.60
2022-08-11T19:36:47.459Z,60.20
2022-08-11T19:39:33.864Z,60.20
2022-08-11T19:42:20.963Z,60.20
2022-08-11T19:45:07.273Z,60.50
2022-08-11T19:48:08.195Z,60.70
2022-08-11T19:51:00.527Z,60.90
2022-08-11T19:53:47.652Z,61.30
2022-08-11T19:56:34.617Z,61.40
2022-08-11T19:59:21.141Z,62.00
2022-08-11T20:02:13.915Z,61.90
2022-08-11T20:05:00.928Z,62.30
2022-08-11T20:07:48.352Z,62.50
2022-08-11T20:10:38.283Z,62.80
2022-08-11T20:16:14.230Z,62.30
2022-08-11T20:19:00.959Z,62.70
2022-08-11T20:21:47.150Z,62.70
2022-08-11T20:24:34.162Z,63.20
2022-08-11T20:27:24.535Z,63.30
2022-08-11T20:30:11.370Z,63.50
2022-08-11T20:32:59.053Z,63.80
2022-08-11T20:35:45.351Z,64.20
2022-08-11T20:38:33.832Z,64.20
2022-08-11T20:41:21.953Z,64.90
2022-08-11T20:44:09.538Z,65.00
2022-08-11T20:46:57.721Z,65.00
2022-08-11T20:49:53.804Z,65.40
2022-08-11T20:52:47.504Z,66.00
2022-08-11T20:55:51.150Z,66.40
2022-08-11T20:59:13.305Z,66.90
2022-08-11T21:01:51.243Z,67.00
2022-08-11T21:04:37.667Z,66.80
2022-08-11T21:07:41.411Z,66.90
2022-08-11T21:10:29.551Z,66.70
2022-08-11T21:13:26.179Z,66.70
2022-08-11T21:16:25.505Z,66.80
2022-08-11T21:20:01.342Z,66.70
2022-08-11T21:23:19.829Z,66.80
2022-08-11T21:26:14.747Z,66.50
2022-08-11T21:29:01.519Z,66.30
2022-08-11T21:31:51.173Z,66.50
2022-08-11T21:34:39.840Z,66.70
2022-08-11T21:37:27.822Z,66.70
2022-08-11T21:40:17.492Z,66.70
2022-08-11T21:43:05.616Z,66.70
2022-08-11T21:45:54.385Z,66.40
2022-08-11T21:48:41.393Z,66.70
2022-08-11T21:51:26.750Z,66.80
2022-08-11T21:54:12.761Z,66.70
2022-08-11T21:56:59.114Z,67.00
2022-08-11T22:00:06.970Z,67.60
2022-08-11T22:02:53.943Z,67.80
2022-08-11T22:05:40.509Z,68.10
2022-08-11T22:08:27.230Z,68.30
2022-08-11T22:11:14.224Z,67.50
2022-08-11T22:14:01.277Z,68.00
2022-08-11T22:16:52.474Z,68.00
2022-08-11T22:19:39.429Z,68.40
2022-08-11T22:22:26.375Z,68.50
2022-08-11T22:25:16.691Z,69.00
2022-08-11T22:28:04.170Z,69.50
2022-08-11T22:30:49.446Z,69.10
2022-08-11T22:33:36.250Z,69.40
2022-08-11T22:36:28.240Z,69.10
2022-08-11T22:39:16.917Z,69.40
2022-08-11T22:42:02.437Z,69.80
2022-08-11T22:44:47.921Z,69.90
2022-08-11T22:47:40.245Z,70.10
2022-08-11T22:50:27.534Z,70.30
2022-08-11T22:53:13.963Z,70.60
2022-08-11T22:56:00.068Z,70.70
2022-08-11T22:58:46.170Z,70.50
2022-08-11T23:01:35.688Z,70.70
2022-08-11T23:04:21.997Z,70.50
2022-08-11T23:07:08.348Z,70.70
2022-08-11T23:09:54.537Z,70.80
2022-08-11T23:12:40.409Z,70.40
2022-08-11T23:15:31.038Z,70.60
2022-08-11T23:18:16.654Z,70.70
2022-08-11T23:21:03.134Z,71.60
2022-08-11T23:23:49.238Z,71.40
2022-08-11T23:26:37.432Z,71.90
2022-08-11T23:29:25.136Z,72.30
2022-08-11T23:32:11.112Z,72.60
2022-08-11T23:35:04.555Z,73.40
2022-08-11T23:38:05.354Z,73.50
2022-08-11T23:40:50.995Z,73.10
2022-08-11T23:43:41.629Z,72.90
2022-08-11T23:46:27.489Z,73.40
2022-08-11T23:49:17.357Z,73.50
2022-08-11T23:52:03.513Z,73.40
2022-08-11T23:54:49.734Z,73.30
2022-08-11T23:57:35.311Z,73.40
